Time;durP1;ratioP1;P1;durP2;ratioP2;P2;SDS_P1;SDS_P2;PMS_P1;PMS_P2;Temp;Humidity;BMP_temperature;BMP_pressure;BME280_temperature;BME280_humidity;BME280_pressure;Samples;Min_cycle;Max_cycle;Signal;HPM_P1;HPM_P2
2022/07/17 00:01:16;;;;;;;10.73;4.90;;;;;;;;;;20998715;28;20094;-64
2022/07/17 00:11:18;;;;;;;12.88;5.00;;;;;;;;;;20997643;28;20128;-63
2022/07/17 00:21:20;;;;;;;16.42;5.07;;;;;;;;;;20997522;28;20087;-70
2022/07/17 00:31:22;;;;;;;9.48;4.55;;;;;;;;;;20989615;28;20049;-67
2022/07/17 00:41:25;;;;;;;9.63;4.50;;;;;;;;;;20996972;28;20520;-64
2022/07/17 00:51:27;;;;;;;5.15;4.00;;;;;;;;;;20996000;28;20070;-63
2022/07/17 01:01:30;;;;;;;6.43;3.47;;;;;;;;;;20995451;28;20059;-66
2022/07/17 01:11:33;;;;;;;7.85;4.38;;;;;;;;;;20995004;28;20053;-71
2022/07/17 01:21:44;;;;;;;8.18;3.83;;;;;;;;;;20996025;28;20496;-70
2022/07/17 01:31:48;;;;;;;8.07;3.50;;;;;;;;;;20995005;28;20044;-66
2022/07/17 01:41:53;;;;;;;7.82;3.95;;;;;;;;;;20994803;28;20099;-61
2022/07/17 01:51:59;;;;;;;6.03;3.33;;;;;;;;;;21009319;28;20455;-66
2022/07/17 02:02:07;;;;;;;4.72;3.40;;;;;;;;;;21009026;28;20404;-68
2022/07/17 02:12:13;;;;;;;5.95;3.45;;;;;;;;;;21007272;28;20055;-68
2022/07/17 02:22:17;;;;;;;6.68;3.13;;;;;;;;;;21007302;28;20084;-61
2022/07/17 02:32:21;;;;;;;5.40;3.03;;;;;;;;;;21006402;28;20147;-63
2022/07/17 02:42:28;;;;;;;6.55;3.22;;;;;;;;;;21005568;28;20088;-67
2022/07/17 02:52:35;;;;;;;6.13;3.00;;;;;;;;;;21004577;28;20412;-68
2022/07/17 03:02:55;;;;;;;7.28;3.50;;;;;;;;;;21004307;28;20416;-63
2022/07/17 03:12:58;;;;;;;8.77;4.72;;;;;;;;;;21002505;28;20465;-66
2022/07/17 03:23:01;;;;;;;5.68;4.47;;;;;;;;;;21001762;28;20060;-63
2022/07/17 03:33:04;;;;;;;6.68;3.35;;;;;;;;;;21002326;28;20468;-65
2022/07/17 03:43:07;;;;;;;8.60;4.72;;;;;;;;;;21000023;28;20049;-65
2022/07/17 03:53:09;;;;;;;9.75;4.60;;;;;;;;;;20999640;28;20508;-65
2022/07/17 04:03:12;;;;;;;12.57;4.85;;;;;;;;;;20999178;28;20471;-64
2022/07/17 04:13:14;;;;;;;12.30;4.57;;;;;;;;;;21058853;28;20129;-65
2022/07/17 04:23:17;;;;;;;9.63;4.70;;;;;;;;;;21081549;28;20044;-65
2022/07/17 04:33:20;;;;;;;7.22;4.40;;;;;;;;;;21080807;28;20044;-63
2022/07/17 04:43:23;;;;;;;9.57;4.68;;;;;;;;;;21080125;28;20052;-64
2022/07/17 04:53:28;;;;;;;5.32;3.95;;;;;;;;;;21079811;28;20040;-63
2022/07/17 05:03:31;;;;;;;5.53;4.13;;;;;;;;;;21079864;28;20054;-64
2022/07/17 05:13:33;;;;;;;6.45;4.30;;;;;;;;;;21160562;28;20055;-66
2022/07/17 05:23:35;;;;;;;7.25;4.28;;;;;;;;;;21177001;28;20104;-65
2022/07/17 05:33:37;;;;;;;5.63;4.22;;;;;;;;;;21179710;28;20047;-63
2022/07/17 05:43:39;;;;;;;9.77;4.25;;;;;;;;;;21178222;28;20416;-65
2022/07/17 05:53:41;;;;;;;5.90;4.03;;;;;;;;;;21177518;28;20086;-62
2022/07/17 06:03:42;;;;;;;5.78;4.20;;;;;;;;;;21177199;28;20052;-64
2022/07/17 06:13:44;;;;;;;8.85;4.55;;;;;;;;;;21175301;28;20090;-61
2022/07/17 06:23:46;;;;;;;8.25;4.55;;;;;;;;;;21175099;28;20134;-64
2022/07/17 06:33:48;;;;;;;4.97;4.40;;;;;;;;;;21173699;28;20052;-65
2022/07/17 06:43:51;;;;;;;9.23;4.88;;;;;;;;;;21173702;28;20048;-66
2022/07/17 06:53:53;;;;;;;7.95;4.53;;;;;;;;;;21173990;28;20134;-64
2022/07/17 07:03:55;;;;;;;7.43;4.50;;;;;;;;;;21172375;28;20052;-68
2022/07/17 07:13:57;;;;;;;7.28;5.47;;;;;;;;;;21172720;28;20044;-62
2022/07/17 07:24:00;;;;;;;5.75;5.03;;;;;;;;;;21171764;28;20047;-63
2022/07/17 07:34:02;;;;;;;9.20;5.50;;;;;;;;;;21169739;28;20044;-66
2022/07/17 07:44:05;;;;;;;7.50;6.00;;;;;;;;;;21167585;28;20044;-62
2022/07/17 07:54:07;;;;;;;8.02;6.05;;;;;;;;;;21168101;28;20073;-65
2022/07/17 08:04:09;;;;;;;7.00;5.68;;;;;;;;;;21168004;28;20047;-62
2022/07/17 08:14:11;;;;;;;9.27;6.03;;;;;;;;;;21166711;28;20063;-65
2022/07/17 08:24:14;;;;;;;9.55;6.35;;;;;;;;;;21165626;28;20047;-62
2022/07/17 08:34:16;;;;;;;7.00;6.13;;;;;;;;;;21165930;28;20071;-64
2022/07/17 08:44:19;;;;;;;10.20;6.10;;;;;;;;;;21165032;28;20085;-66
2022/07/17 08:54:23;;;;;;;7.57;6.43;;;;;;;;;;21165996;28;20519;-67
2022/07/17 09:04:24;;;;;;;7.82;6.70;;;;;;;;;;21163288;28;20047;-64
2022/07/17 09:14:37;;;;;;;7.60;6.53;;;;;;;;;;21163515;28;20051;-67
2022/07/17 09:24:44;;;;;;;6.55;5.95;;;;;;;;;;21162881;28;20043;-63
2022/07/17 09:34:47;;;;;;;9.23;5.85;;;;;;;;;;21162179;28;20539;-63
2022/07/17 09:44:55;;;;;;;7.63;6.40;;;;;;;;;;21161492;28;20491;-66
2022/07/17 09:54:58;;;;;;;10.98;6.63;;;;;;;;;;21161206;28;20055;-62
2022/07/17 10:05:00;;;;;;;7.00;5.93;;;;;;;;;;21165579;28;20090;-64
2022/07/17 10:15:02;;;;;;;9.40;6.45;;;;;;;;;;21175801;28;20048;-64
2022/07/17 10:25:05;;;;;;;6.68;5.97;;;;;;;;;;21175134;28;20449;-64
2022/07/17 10:35:08;;;;;;;9.70;5.88;;;;;;;;;;21174408;28;20048;-63
2022/07/17 10:45:15;;;;;;;6.87;5.40;;;;;;;;;;21178009;28;20385;-66
2022/07/17 10:55:19;;;;;;;10.02;7.07;;;;;;;;;;21176407;28;20122;-59
2022/07/17 11:05:22;;;;;;;;;;;;;;;;;;21172696;28;20143;-66
2022/07/17 11:15:24;;;;;;;10.07;5.90;;;;;;;;;;21172025;28;19924;-66
2022/07/17 11:25:26;;;;;;;6.15;4.97;;;;;;;;;;21170619;28;20058;-66
2022/07/17 11:35:28;;;;;;;8.18;4.53;;;;;;;;;;21169548;28;20054;-63
2022/07/17 11:45:30;;;;;;;8.45;5.95;;;;;;;;;;21170634;28;20450;-62
2022/07/17 11:55:39;;;;;;;7.13;4.75;;;;;;;;;;21169736;28;20480;-63
2022/07/17 12:05:58;;;;;;;7.10;4.78;;;;;;;;;;21167062;28;20044;-69
2022/07/17 12:16:00;;;;;;;7.93;4.65;;;;;;;;;;21167155;28;20073;-66
2022/07/17 12:26:10;;;;;;;9.30;5.00;;;;;;;;;;21165149;28;20052;-62
2022/07/17 12:36:14;;;;;;;9.88;5.97;;;;;;;;;;21164928;28;20051;-68
2022/07/17 12:46:16;;;;;;;8.88;5.00;;;;;;;;;;21164801;28;20054;-64
2022/07/17 12:56:18;;;;;;;7.25;4.00;;;;;;;;;;21151094;28;20044;-64
2022/07/17 13:06:20;;;;;;;6.82;4.53;;;;;;;;;;21164708;28;20056;-68
2022/07/17 13:16:23;;;;;;;9.27;4.47;;;;;;;;;;21162669;28;20046;-65
2022/07/17 13:26:26;;;;;;;6.28;4.18;;;;;;;;;;21162333;28;20087;-64
2022/07/17 13:36:29;;;;;;;7.30;4.07;;;;;;;;;;21161961;28;20058;-63
2022/07/17 13:46:34;;;;;;;10.40;4.65;;;;;;;;;;21160603;28;20097;-64
2022/07/17 13:56:36;;;;;;;10.80;6.40;;;;;;;;;;21177580;28;20453;-64
2022/07/17 14:06:40;;;;;;;11.00;4.13;;;;;;;;;;21159745;28;20051;-63
2022/07/17 14:16:42;;;;;;;6.63;4.13;;;;;;;;;;21176020;28;20514;-64
2022/07/17 14:26:47;;;;;;;6.93;4.55;;;;;;;;;;21159039;28;20047;-70
2022/07/17 14:36:50;;;;;;;8.18;4.65;;;;;;;;;;21176246;28;20054;-64
2022/07/17 14:46:52;;;;;;;8.95;4.53;;;;;;;;;;21175013;28;20101;-63
2022/07/17 14:56:54;;;;;;;7.15;4.75;;;;;;;;;;21153914;28;20071;-65
2022/07/17 15:06:56;;;;;;;10.18;5.13;;;;;;;;;;21171430;28;20073;-65
2022/07/17 15:16:58;;;;;;;9.82;4.93;;;;;;;;;;21170849;28;20047;-64
2022/07/17 15:27:18;;;;;;;8.32;5.35;;;;;;;;;;21170126;28;20044;-64
2022/07/17 15:37:23;;;;;;;8.20;4.70;;;;;;;;;;21169218;28;20047;-62
2022/07/17 15:47:26;;;;;;;8.27;4.97;;;;;;;;;;21168666;28;20520;-63
2022/07/17 15:57:28;;;;;;;8.80;4.95;;;;;;;;;;21167425;28;20047;-64
2022/07/17 16:07:30;;;;;;;7.72;5.28;;;;;;;;;;21165705;28;20055;-63
2022/07/17 16:17:32;;;;;;;7.70;4.43;;;;;;;;;;21165491;28;20044;-65
2022/07/17 16:27:34;;;;;;;9.95;5.45;;;;;;;;;;21165208;28;20050;-65
2022/07/17 16:37:36;;;;;;;9.77;4.90;;;;;;;;;;21165697;28;20070;-65
2022/07/17 16:47:38;;;;;;;12.18;5.03;;;;;;;;;;21167523;28;20049;-63
2022/07/17 16:57:40;;;;;;;7.93;4.18;;;;;;;;;;21163899;28;20048;-66
2022/07/17 17:07:42;;;;;;;7.80;4.55;;;;;;;;;;21163717;28;20135;-65
2022/07/17 17:17:44;;;;;;;10.98;5.40;;;;;;;;;;21173962;28;20051;-65
2022/07/17 17:27:46;;;;;;;7.57;4.32;;;;;;;;;;21179616;28;20498;-63
2022/07/17 17:37:48;;;;;;;8.75;4.93;;;;;;;;;;21179555;28;20047;-64
2022/07/17 17:47:49;;;;;;;10.57;4.95;;;;;;;;;;21178468;28;20153;-65
2022/07/17 17:57:51;;;;;;;8.45;4.30;;;;;;;;;;21177707;28;20056;-69
2022/07/17 18:07:53;;;;;;;8.52;4.45;;;;;;;;;;21177163;28;20078;-63
2022/07/17 18:17:55;;;;;;;8.32;4.55;;;;;;;;;;21179717;28;20511;-62
2022/07/17 18:27:57;;;;;;;9.45;4.30;;;;;;;;;;21173651;28;20051;-62
2022/07/17 18:38:00;;;;;;;8.27;5.57;;;;;;;;;;21175263;28;20048;-67
2022/07/17 18:48:02;;;;;;;10.60;6.07;;;;;;;;;;21173597;28;20059;-62
2022/07/17 18:58:05;;;;;;;9.00;5.53;;;;;;;;;;21172659;28;20131;-63
2022/07/17 19:08:06;;;;;;;6.53;5.03;;;;;;;;;;21152968;28;20043;-63
2022/07/17 19:18:08;;;;;;;9.13;5.13;;;;;;;;;;21170681;28;20058;-62
2022/07/17 19:28:11;;;;;;;10.45;5.82;;;;;;;;;;21169779;28;20090;-64
2022/07/17 19:38:14;;;;;;;7.90;5.37;;;;;;;;;;21170249;28;20122;-62
2022/07/17 19:48:15;;;;;;;9.02;5.97;;;;;;;;;;21168398;28;20047;-63
2022/07/17 19:58:17;;;;;;;6.70;4.78;;;;;;;;;;21168627;28;20048;-62
2022/07/17 20:08:21;;;;;;;10.93;5.15;;;;;;;;;;21166927;28;20060;-62
2022/07/17 20:18:23;;;;;;;;;;;;;;;;;;21166892;28;20423;-62
2022/07/17 20:28:25;;;;;;;9.13;4.78;;;;;;;;;;21165247;28;20313;-64
2022/07/17 20:38:27;;;;;;;12.40;5.43;;;;;;;;;;21165114;28;20044;-64
2022/07/17 20:48:29;;;;;;;9.85;6.28;;;;;;;;;;21164150;28;20403;-62
2022/07/17 20:58:33;;;;;;;4.55;3.85;;;;;;;;;;21164115;28;20058;-64
2022/07/17 21:08:35;;;;;;;10.73;5.50;;;;;;;;;;21163098;28;20082;-63
2022/07/17 21:18:36;;;;;;;8.52;4.82;;;;;;;;;;21162353;28;20048;-63
2022/07/17 21:28:38;;;;;;;10.45;5.25;;;;;;;;;;21162349;28;20047;-64
2022/07/17 21:38:41;;;;;;;8.05;4.57;;;;;;;;;;21162212;28;20047;-61
2022/07/17 21:48:43;;;;;;;7.55;4.90;;;;;;;;;;21162083;28;20048;-62
2022/07/17 21:58:45;;;;;;;9.75;4.78;;;;;;;;;;21162391;28;20086;-62
2022/07/17 22:08:47;;;;;;;12.70;5.05;;;;;;;;;;21177030;28;20060;-61
2022/07/17 22:18:49;;;;;;;6.85;4.35;;;;;;;;;;21175605;28;20100;-65
2022/07/17 22:28:52;;;;;;;8.23;4.68;;;;;;;;;;21175223;28;20126;-65
2022/07/17 22:38:54;;;;;;;10.70;4.82;;;;;;;;;;21174679;28;20139;-63
2022/07/17 22:48:56;;;;;;;9.05;5.55;;;;;;;;;;21173303;28;20200;-63
2022/07/17 22:58:58;;;;;;;7.78;4.78;;;;;;;;;;21172631;28;20078;-64
2022/07/17 23:09:00;;;;;;;7.60;3.95;;;;;;;;;;21172367;28;20576;-62
2022/07/17 23:19:02;;;;;;;12.15;4.30;;;;;;;;;;21170951;28;20468;-60
2022/07/17 23:29:04;;;;;;;5.60;3.88;;;;;;;;;;21170520;28;20047;-60
2022/07/17 23:39:06;;;;;;;7.57;5.00;;;;;;;;;;21169726;28;20415;-62
2022/07/17 23:49:08;;;;;;;10.52;4.60;;;;;;;;;;21169104;28;20052;-63
2022/07/17 23:59:09;;;;;;;5.38;3.63;;;;;;;;;;21168463;28;20051;-63
